createdAt,value
2018-10-03T00:00:54.655Z,24.63
2018-10-03T00:03:22.934Z,23.63
2018-10-03T00:05:51.235Z,25.43
2018-10-03T00:08:19.621Z,23.17
2018-10-03T00:10:47.993Z,25.77
2018-10-03T00:13:16.291Z,24.73
2018-10-03T00:15:44.608Z,25.53
2018-10-03T00:18:12.903Z,26.77
2018-10-03T00:20:41.308Z,27.50
2018-10-03T00:23:09.589Z,25.67
2018-10-03T00:25:37.898Z,26.57
2018-10-03T00:28:06.203Z,24.93
2018-10-03T00:30:34.623Z,27.43
2018-10-03T00:33:02.955Z,24.83
2018-10-03T00:35:31.247Z,27.70
2018-10-03T00:37:59.551Z,27.97
2018-10-03T00:40:27.881Z,27.07
2018-10-03T00:42:56.278Z,28.40
2018-10-03T00:45:24.591Z,27.80
2018-10-03T00:47:53.047Z,28.47
2018-10-03T00:50:21.359Z,28.30
2018-10-03T00:52:49.671Z,29.43
2018-10-03T00:55:18.015Z,27.80
2018-10-03T00:57:46.296Z,26.97
2018-10-03T01:00:14.635Z,27.07
2018-10-03T01:02:42.959Z,29.27
2018-10-03T01:05:11.272Z,28.13
2018-10-03T01:07:39.583Z,27.73
2018-10-03T01:10:07.917Z,25.90
2018-10-03T01:12:36.213Z,27.37
2018-10-03T01:15:04.535Z,28.13
2018-10-03T01:17:32.823Z,29.13
2018-10-03T01:20:01.152Z,28.43
2018-10-03T01:22:29.434Z,26.53
2018-10-03T01:24:57.739Z,26.80
2018-10-03T01:27:28.656Z,28.73
2018-10-03T01:29:57.640Z,26.53
2018-10-03T01:32:25.919Z,26.57
2018-10-03T01:34:54.255Z,27.33
2018-10-03T01:37:22.551Z,27.03
2018-10-03T01:39:51.235Z,27.43
2018-10-03T01:42:19.528Z,26.23
2018-10-03T01:44:47.867Z,28.47
2018-10-03T01:47:16.187Z,28.80
2018-10-03T01:49:44.502Z,26.67
2018-10-03T01:52:12.799Z,26.37
2018-10-03T01:54:41.094Z,26.43
2018-10-03T01:57:09.575Z,26.23
2018-10-03T01:59:37.987Z,26.20
2018-10-03T02:02:06.712Z,26.27
2018-10-03T02:04:35.471Z,26.70
2018-10-03T02:07:03.836Z,25.30
2018-10-03T02:09:32.158Z,25.37
2018-10-03T02:12:00.479Z,26.60
2018-10-03T02:14:28.755Z,25.53
2018-10-03T02:16:57.064Z,25.93
2018-10-03T02:19:25.344Z,26.63
2018-10-03T02:21:53.654Z,26.90
2018-10-03T02:24:21.939Z,24.87
2018-10-03T02:26:50.267Z,26.53
2018-10-03T02:29:18.591Z,24.63
2018-10-03T02:31:47.124Z,25.57
2018-10-03T02:34:15.435Z,26.80
2018-10-03T02:36:43.736Z,24.37
2018-10-03T02:39:12.059Z,25.67
2018-10-03T02:41:40.379Z,25.33
2018-10-03T02:44:08.660Z,25.67
2018-10-03T02:46:36.983Z,25.27
2018-10-03T02:49:05.276Z,25.13
2018-10-03T02:51:33.675Z,25.10
2018-10-03T02:54:01.972Z,26.03
2018-10-03T02:56:30.299Z,24.57
2018-10-03T02:58:58.591Z,24.40
2018-10-03T03:01:27.137Z,25.47
2018-10-03T03:03:55.392Z,24.73
2018-10-03T03:06:23.720Z,23.93
2018-10-03T03:08:52.011Z,25.43
2018-10-03T03:11:20.331Z,24.00
2018-10-03T03:13:48.625Z,24.40
2018-10-03T03:16:16.943Z,23.80
2018-10-03T03:18:45.256Z,25.00
2018-10-03T03:21:13.560Z,24.77
2018-10-03T03:23:41.867Z,25.10
2018-10-03T03:26:10.179Z,23.60
2018-10-03T03:28:38.483Z,23.13
2018-10-03T03:31:06.932Z,24.87
2018-10-03T03:33:35.237Z,25.53
2018-10-03T03:36:03.547Z,25.13
2018-10-03T03:38:31.843Z,24.40
2018-10-03T03:41:00.157Z,25.33
2018-10-03T03:43:28.452Z,24.10
2018-10-03T03:45:57.027Z,24.27
2018-10-03T03:48:25.315Z,25.87
2018-10-03T03:50:53.619Z,24.47
2018-10-03T03:53:22.188Z,24.80
2018-10-03T03:55:51.471Z,25.13
2018-10-03T03:58:19.750Z,24.40
2018-10-03T04:00:48.147Z,23.90
2018-10-03T04:03:16.500Z,24.77
2018-10-03T04:05:44.812Z,23.57
2018-10-03T04:08:13.091Z,22.63
2018-10-03T04:10:41.378Z,22.17
2018-10-03T04:13:09.687Z,22.67
2018-10-03T04:15:38.020Z,21.50
2018-10-03T04:18:06.307Z,21.20
2018-10-03T04:20:34.612Z,20.53
2018-10-03T04:23:02.915Z,20.87
2018-10-03T04:25:31.195Z,21.57
2018-10-03T04:27:59.495Z,20.23
2018-10-03T04:30:27.779Z,19.33
2018-10-03T04:32:56.094Z,19.57
2018-10-03T04:35:24.450Z,17.33
2018-10-03T04:37:52.735Z,17.50
2018-10-03T04:40:21.024Z,17.93
2018-10-03T04:42:49.335Z,18.37
2018-10-03T04:45:17.646Z,18.40
2018-10-03T04:47:46.011Z,17.90
2018-10-03T04:50:14.291Z,19.30
2018-10-03T04:52:42.635Z,19.47
2018-10-03T04:55:10.935Z,19.57
2018-10-03T04:57:39.455Z,20.50
2018-10-03T05:00:07.767Z,19.93
2018-10-03T05:02:36.103Z,20.40
2018-10-03T05:05:05.590Z,18.90
2018-10-03T05:07:33.903Z,19.73
2018-10-03T05:10:02.224Z,20.57
2018-10-03T05:12:30.828Z,20.50
2018-10-03T05:14:59.358Z,19.20
2018-10-03T05:17:27.703Z,19.03
2018-10-03T05:19:56.684Z,20.07
2018-10-03T05:22:25.007Z,18.40
2018-10-03T05:24:53.291Z,19.23
2018-10-03T05:27:21.600Z,20.27
2018-10-03T05:29:49.876Z,19.80
2018-10-03T05:32:18.203Z,19.20
2018-10-03T05:34:46.483Z,18.80
2018-10-03T05:37:14.787Z,18.33
2018-10-03T05:39:43.109Z,18.33
2018-10-03T05:42:11.399Z,17.70
2018-10-03T05:44:39.687Z,18.13
2018-10-03T05:47:07.996Z,18.27
2018-10-03T05:49:36.300Z,17.90
2018-10-03T05:52:04.601Z,17.37
2018-10-03T05:54:32.893Z,16.67
2018-10-03T05:57:01.212Z,16.50
2018-10-03T05:59:29.508Z,16.53
2018-10-03T06:01:57.815Z,15.17
2018-10-03T06:04:26.095Z,15.03
2018-10-03T06:06:54.407Z,13.90
2018-10-03T06:09:22.687Z,14.10
2018-10-03T06:11:51.019Z,13.90
2018-10-03T06:14:19.300Z,13.83
2018-10-03T06:16:47.604Z,13.47
2018-10-03T06:19:15.887Z,13.67
2018-10-03T06:21:44.215Z,13.53
2018-10-03T06:24:12.491Z,13.37
2018-10-03T06:26:41.203Z,13.17
2018-10-03T06:29:09.871Z,13.53
2018-10-03T06:31:38.175Z,13.33
2018-10-03T06:34:06.492Z,12.50
2018-10-03T06:36:34.767Z,12.23
2018-10-03T06:39:03.236Z,11.63
2018-10-03T06:41:31.519Z,12.17
2018-10-03T06:43:59.878Z,9.87
2018-10-03T06:46:28.156Z,10.00
2018-10-03T06:48:56.878Z,8.67
2018-10-03T06:51:25.163Z,8.27
2018-10-03T06:53:53.487Z,7.80
2018-10-03T06:56:21.779Z,7.10
2018-10-03T06:58:50.091Z,7.37
2018-10-03T07:01:18.383Z,6.63
2018-10-03T07:03:46.676Z,6.30
2018-10-03T07:06:15.467Z,5.93
2018-10-03T07:08:44.227Z,5.20
2018-10-03T07:11:12.612Z,4.53
2018-10-03T07:13:40.967Z,4.80
2018-10-03T07:16:09.263Z,4.50
2018-10-03T07:18:37.755Z,4.90
2018-10-03T07:21:06.170Z,4.50
2018-10-03T07:23:35.223Z,4.63
2018-10-03T07:26:03.514Z,4.67
2018-10-03T07:28:31.823Z,4.00
2018-10-03T07:31:00.103Z,4.13
2018-10-03T07:33:28.408Z,4.17
2018-10-03T07:35:56.679Z,4.50
2018-10-03T07:38:25.043Z,4.40
2018-10-03T07:40:53.312Z,5.87
2018-10-03T07:43:21.624Z,3.90
2018-10-03T07:45:49.915Z,3.77
2018-10-03T07:48:18.215Z,4.50
2018-10-03T07:50:46.495Z,4.30
2018-10-03T07:53:14.788Z,3.60
2018-10-03T07:55:43.070Z,3.60
2018-10-03T07:58:11.380Z,3.90
2018-10-03T08:00:39.668Z,4.07
2018-10-03T08:03:14.123Z,4.60
2018-10-03T08:05:42.419Z,3.67
2018-10-03T08:08:10.725Z,3.77
2018-10-03T08:10:39.707Z,4.03
2018-10-03T08:13:08.127Z,4.03
2018-10-03T08:15:36.594Z,5.10
2018-10-03T08:18:04.960Z,4.33
2018-10-03T08:20:33.311Z,4.17
2018-10-03T08:23:01.632Z,4.17
2018-10-03T08:25:29.915Z,3.67
2018-10-03T08:27:58.206Z,4.07
2018-10-03T08:30:26.487Z,3.27
2018-10-03T08:32:54.877Z,4.37
2018-10-03T08:35:23.103Z,3.73
2018-10-03T08:37:51.418Z,3.47
2018-10-03T08:40:19.724Z,6.27
2018-10-03T08:42:48.055Z,3.70
2018-10-03T08:45:16.339Z,4.07
2018-10-03T08:47:44.659Z,3.50
2018-10-03T08:50:13.512Z,3.87
2018-10-03T08:52:41.835Z,3.70
2018-10-03T08:55:10.115Z,3.20
2018-10-03T08:57:40.088Z,3.30
2018-10-03T09:00:08.940Z,3.83
2018-10-03T09:02:37.216Z,3.63
2018-10-03T09:05:05.616Z,3.47
2018-10-03T09:07:33.927Z,3.60
2018-10-03T09:10:02.215Z,3.40
2018-10-03T09:12:30.508Z,3.50
2018-10-03T09:14:58.819Z,4.07
2018-10-03T09:17:27.123Z,3.50
2018-10-03T09:19:55.427Z,3.90
2018-10-03T09:22:23.715Z,3.83
2018-10-03T09:24:52.131Z,3.53
2018-10-03T09:27:20.428Z,3.57
2018-10-03T09:29:48.767Z,3.70
2018-10-03T09:32:17.093Z,3.43
2018-10-03T09:34:45.423Z,3.30
2018-10-03T09:37:13.728Z,3.60
2018-10-03T09:39:42.060Z,3.33
2018-10-03T09:42:10.359Z,3.47
2018-10-03T09:44:38.724Z,3.67
2018-10-03T09:47:07.135Z,3.80
2018-10-03T09:49:35.507Z,3.93
2018-10-03T09:52:03.985Z,3.40
2018-10-03T09:54:32.310Z,3.67
2018-10-03T09:57:00.611Z,4.00
2018-10-03T09:59:28.912Z,3.43
2018-10-03T10:01:57.235Z,5.90
2018-10-03T10:04:25.555Z,3.20
2018-10-03T10:06:53.855Z,3.30
2018-10-03T10:09:22.587Z,3.27
2018-10-03T10:11:50.899Z,3.40
2018-10-03T10:14:19.227Z,4.40
2018-10-03T10:16:47.580Z,3.30
2018-10-03T10:19:15.915Z,3.63
2018-10-03T10:21:44.260Z,3.40
2018-10-03T10:24:12.572Z,4.13
2018-10-03T10:26:40.963Z,3.10
2018-10-03T10:29:09.275Z,3.10
2018-10-03T10:31:37.591Z,4.10
2018-10-03T10:34:05.907Z,3.53
2018-10-03T10:36:34.207Z,3.60
2018-10-03T10:39:02.543Z,3.60
2018-10-03T10:41:31.516Z,3.40
2018-10-03T10:43:59.656Z,3.30
2018-10-03T10:46:27.966Z,3.13
2018-10-03T10:48:56.275Z,3.37
2018-10-03T10:51:24.581Z,3.50
2018-10-03T10:53:52.891Z,3.23
2018-10-03T10:56:21.187Z,3.10
2018-10-03T10:58:49.500Z,3.53
2018-10-03T11:01:17.775Z,3.30
2018-10-03T11:03:46.086Z,3.70
2018-10-03T11:06:14.422Z,3.40
2018-10-03T11:08:42.737Z,3.70
2018-10-03T11:11:11.035Z,3.37
2018-10-03T11:13:39.335Z,3.43
2018-10-03T11:16:08.211Z,3.50
2018-10-03T11:18:36.519Z,3.60
2018-10-03T11:21:04.851Z,3.17
2018-10-03T11:23:33.182Z,3.33
2018-10-03T11:26:01.516Z,3.10
2018-10-03T11:28:29.807Z,9.47
2018-10-03T11:30:58.175Z,4.57
2018-10-03T11:33:26.472Z,3.40
2018-10-03T11:35:54.874Z,3.20
2018-10-03T11:38:23.225Z,3.27
2018-10-03T11:40:51.496Z,3.07
2018-10-03T11:43:19.796Z,3.50
2018-10-03T11:45:48.145Z,3.50
2018-10-03T11:48:16.427Z,3.17
2018-10-03T11:50:44.828Z,4.03
2018-10-03T11:53:13.055Z,4.03
2018-10-03T11:55:41.388Z,3.80
2018-10-03T11:58:09.662Z,3.73
2018-10-03T12:00:37.979Z,3.93
2018-10-03T12:03:07.065Z,3.83
2018-10-03T12:05:35.303Z,3.70
2018-10-03T12:08:03.608Z,3.63
2018-10-03T12:10:31.899Z,4.13
2018-10-03T12:13:00.287Z,7.57
2018-10-03T12:15:28.574Z,4.93
2018-10-03T12:17:56.948Z,3.70
2018-10-03T12:20:25.247Z,3.73
2018-10-03T12:22:53.575Z,3.60
2018-10-03T12:25:22.018Z,3.50
2018-10-03T12:27:50.271Z,3.47
2018-10-03T12:30:18.593Z,3.80
2018-10-03T12:32:46.916Z,3.53
2018-10-03T12:35:19.366Z,3.50
2018-10-03T12:37:48.509Z,3.57
2018-10-03T12:40:16.847Z,3.23
2018-10-03T12:42:45.251Z,3.83
2018-10-03T12:45:13.633Z,3.73
2018-10-03T12:47:41.863Z,3.13
2018-10-03T12:50:10.188Z,3.70
2018-10-03T12:52:38.515Z,3.53
2018-10-03T12:55:06.935Z,3.67
2018-10-03T12:57:35.319Z,3.20
2018-10-03T13:00:03.693Z,3.20
2018-10-03T13:02:32.098Z,3.57
2018-10-03T13:05:00.388Z,4.73
2018-10-03T13:07:29.111Z,4.33
2018-10-03T13:09:57.451Z,3.40
2018-10-03T13:12:25.774Z,3.00
2018-10-03T13:14:54.135Z,3.30
2018-10-03T13:17:24.100Z,3.63
2018-10-03T13:19:52.688Z,3.10
2018-10-03T13:22:21.500Z,3.10
2018-10-03T13:24:49.795Z,2.90
2018-10-03T13:27:18.591Z,2.97
2018-10-03T13:29:46.920Z,3.60
2018-10-03T13:32:15.411Z,2.80
2018-10-03T13:34:43.716Z,3.00
2018-10-03T13:37:12.011Z,3.00
2018-10-03T13:39:40.743Z,2.83
2018-10-03T13:42:09.078Z,3.27
2018-10-03T13:44:37.451Z,3.30
2018-10-03T13:47:05.783Z,2.90
2018-10-03T13:49:34.095Z,2.73
2018-10-03T13:52:02.483Z,2.73
2018-10-03T13:54:30.803Z,3.03
2018-10-03T13:56:59.155Z,2.40
2018-10-03T13:59:27.596Z,2.90
2018-10-03T14:01:55.997Z,3.07
2018-10-03T14:04:24.283Z,4.23
2018-10-03T14:06:52.583Z,2.83
2018-10-03T14:09:21.572Z,9.27
2018-10-03T14:11:49.875Z,5.27
2018-10-03T14:14:18.181Z,3.33
2018-10-03T14:16:46.489Z,2.87
2018-10-03T14:19:14.797Z,2.53
2018-10-03T14:21:43.122Z,2.80
2018-10-03T14:24:11.483Z,3.10
2018-10-03T14:26:39.940Z,3.00
2018-10-03T14:29:08.467Z,2.57
2018-10-03T14:31:36.760Z,2.93
2018-10-03T14:34:05.136Z,2.57
2018-10-03T14:36:33.455Z,2.70
2018-10-03T14:39:01.849Z,2.87
2018-10-03T14:41:30.151Z,2.60
2018-10-03T14:43:58.487Z,2.90
2018-10-03T14:46:26.796Z,2.93
2018-10-03T14:48:55.343Z,3.30
2018-10-03T14:51:23.656Z,2.87
2018-10-03T14:53:51.967Z,3.17
2018-10-03T14:56:20.299Z,2.67
2018-10-03T14:58:48.683Z,2.87
2018-10-03T15:01:16.935Z,3.07
2018-10-03T15:03:45.222Z,3.50
2018-10-03T15:06:13.596Z,2.70
2018-10-03T15:08:41.907Z,2.80
2018-10-03T15:11:10.282Z,3.20
2018-10-03T15:13:38.831Z,2.90
2018-10-03T15:16:07.795Z,2.83
2018-10-03T15:18:36.894Z,2.73
2018-10-03T15:21:06.268Z,3.00
2018-10-03T15:23:36.339Z,2.67
2018-10-03T15:26:04.703Z,2.93
2018-10-03T15:28:33.003Z,2.80
2018-10-03T15:31:01.323Z,3.07
2018-10-03T15:33:29.626Z,2.93
2018-10-03T15:35:57.966Z,2.90
2018-10-03T15:38:26.257Z,2.80
2018-10-03T15:40:54.699Z,2.80
2018-10-03T15:43:23.047Z,3.10
2018-10-03T15:45:51.395Z,3.23
2018-10-03T15:48:19.865Z,2.90
2018-10-03T15:50:48.103Z,2.80
2018-10-03T15:53:16.402Z,2.80
2018-10-03T15:55:44.875Z,2.60
2018-10-03T15:58:13.155Z,3.00
2018-10-03T16:00:41.467Z,3.13
2018-10-03T16:03:10.215Z,2.87
2018-10-03T16:05:38.871Z,3.17
2018-10-03T16:08:07.240Z,3.27
2018-10-03T16:10:35.711Z,3.00
2018-10-03T16:13:04.235Z,25.27
2018-10-03T16:15:32.624Z,4.50
2018-10-03T16:18:01.340Z,3.13
2018-10-03T16:20:29.671Z,3.23
2018-10-03T16:22:58.092Z,3.90
2018-10-03T16:25:26.431Z,4.43
2018-10-03T16:27:54.783Z,3.77
2018-10-03T16:30:23.175Z,3.70
2018-10-03T16:32:51.663Z,3.13
2018-10-03T16:35:19.984Z,2.80
2018-10-03T16:37:48.303Z,3.33
2018-10-03T16:40:16.623Z,2.73
2018-10-03T16:42:44.946Z,3.00
2018-10-03T16:45:13.231Z,2.60
2018-10-03T16:47:41.583Z,3.30
2018-10-03T16:50:09.878Z,3.27
2018-10-03T16:52:38.485Z,2.90
2018-10-03T16:55:06.815Z,3.10
2018-10-03T16:57:35.169Z,3.43
2018-10-03T17:00:03.524Z,3.27
2018-10-03T17:02:31.902Z,2.67
2018-10-03T17:05:00.203Z,3.10
2018-10-03T17:07:28.568Z,2.83
2018-10-03T17:09:56.900Z,3.03
2018-10-03T17:12:25.316Z,2.90
2018-10-03T17:14:53.641Z,2.93
2018-10-03T17:17:22.236Z,3.10
2018-10-03T17:19:50.531Z,3.13
2018-10-03T17:22:18.861Z,3.27
2018-10-03T17:24:47.211Z,3.23
2018-10-03T17:27:15.563Z,3.03
2018-10-03T17:29:43.868Z,3.07
2018-10-03T17:32:12.504Z,3.30
2018-10-03T17:34:40.847Z,3.43
2018-10-03T17:37:09.209Z,3.30
2018-10-03T17:39:37.508Z,3.10
2018-10-03T17:42:05.911Z,3.03
2018-10-03T17:44:34.207Z,3.43
2018-10-03T17:47:02.894Z,4.67
2018-10-03T17:49:31.183Z,3.33
2018-10-03T17:51:59.507Z,3.03
2018-10-03T17:54:27.948Z,3.17
2018-10-03T17:56:56.300Z,3.37
2018-10-03T17:59:25.986Z,3.43
2018-10-03T18:01:56.255Z,3.17
2018-10-03T18:04:24.564Z,3.70
2018-10-03T18:06:52.868Z,3.43
2018-10-03T18:09:21.227Z,3.80
2018-10-03T18:11:49.479Z,3.40
2018-10-03T18:14:17.800Z,3.13
2018-10-03T18:16:46.083Z,3.50
2018-10-03T18:19:14.416Z,3.47
2018-10-03T18:21:42.747Z,2.70
2018-10-03T18:24:11.119Z,3.57
2018-10-03T18:26:39.402Z,3.30
2018-10-03T18:29:07.697Z,3.87
2018-10-03T18:31:35.987Z,3.50
2018-10-03T18:34:04.310Z,3.60
2018-10-03T18:36:32.588Z,3.50
2018-10-03T18:39:00.908Z,3.30
2018-10-03T18:41:29.316Z,3.30
2018-10-03T18:43:57.659Z,3.40
2018-10-03T18:46:26.055Z,3.77
2018-10-03T18:48:54.399Z,3.03
2018-10-03T18:51:22.719Z,3.53
2018-10-03T18:53:51.092Z,3.37
2018-10-03T18:56:19.448Z,3.67
2018-10-03T18:58:47.747Z,3.97
2018-10-03T19:01:16.049Z,4.40
2018-10-03T19:03:44.438Z,3.33
2018-10-03T19:06:13.313Z,3.60
2018-10-03T19:08:41.590Z,3.87
2018-10-03T19:11:09.937Z,4.07
2018-10-03T19:13:38.272Z,3.57
2018-10-03T19:16:06.559Z,3.77
2018-10-03T19:18:35.404Z,3.33
2018-10-03T19:21:03.809Z,3.67
2018-10-03T19:23:32.132Z,3.80
2018-10-03T19:26:00.464Z,4.03
2018-10-03T19:28:28.797Z,4.03
2018-10-03T19:30:57.146Z,3.73
2018-10-03T19:33:25.531Z,4.20
2018-10-03T19:35:54.251Z,4.07
2018-10-03T19:38:23.008Z,4.00
2018-10-03T19:40:51.379Z,3.67
2018-10-03T19:43:19.711Z,8.80
2018-10-03T19:45:48.075Z,12.00
2018-10-03T19:48:16.554Z,3.33
2018-10-03T19:50:45.144Z,4.30
2018-10-03T19:53:13.920Z,3.77
2018-10-03T19:55:42.435Z,4.17
2018-10-03T19:58:10.738Z,3.97
2018-10-03T20:00:39.072Z,3.63
2018-10-03T20:03:07.779Z,3.73
2018-10-03T20:05:36.075Z,3.87
2018-10-03T20:08:04.387Z,4.03
2018-10-03T20:10:32.768Z,3.83
2018-10-03T20:13:01.072Z,3.67
2018-10-03T20:15:29.378Z,3.87
2018-10-03T20:17:57.731Z,3.53
2018-10-03T20:20:26.043Z,3.60
2018-10-03T20:22:54.356Z,3.67
2018-10-03T20:25:22.801Z,3.87
2018-10-03T20:27:51.155Z,3.93
2018-10-03T20:30:19.439Z,3.97
2018-10-03T20:32:47.799Z,4.43
2018-10-03T20:35:16.124Z,3.80
2018-10-03T20:37:44.435Z,4.33
2018-10-03T20:40:12.743Z,4.57
2018-10-03T20:42:41.074Z,4.07
2018-10-03T20:45:09.463Z,4.03
2018-10-03T20:47:38.180Z,3.80
2018-10-03T20:50:06.508Z,4.07
2018-10-03T20:52:34.896Z,4.03
2018-10-03T20:55:03.227Z,3.63
2018-10-03T20:57:31.563Z,3.60
2018-10-03T20:59:59.842Z,3.87
2018-10-03T21:02:28.143Z,3.80
2018-10-03T21:04:57.509Z,4.33
2018-10-03T21:07:25.811Z,9.07
2018-10-03T21:09:54.159Z,4.00
2018-10-03T21:12:22.483Z,4.10
2018-10-03T21:14:50.807Z,3.90
2018-10-03T21:17:19.248Z,3.67
2018-10-03T21:19:47.771Z,4.20
2018-10-03T21:22:16.051Z,4.20
2018-10-03T21:24:44.355Z,4.13
2018-10-03T21:27:12.671Z,4.20
2018-10-03T21:29:43.904Z,4.43
2018-10-03T21:32:12.648Z,4.30
2018-10-03T21:34:41.246Z,4.60
2018-10-03T21:37:09.626Z,4.50
2018-10-03T21:39:37.935Z,4.57
2018-10-03T21:42:06.320Z,4.77
2018-10-03T21:44:34.647Z,4.33
2018-10-03T21:47:02.941Z,4.07
2018-10-03T21:49:31.259Z,4.17
2018-10-03T21:51:59.564Z,3.93
2018-10-03T21:54:27.875Z,3.93
2018-10-03T21:56:56.336Z,4.13
2018-10-03T21:59:24.806Z,4.20
2018-10-03T22:01:53.019Z,4.33
2018-10-03T22:04:21.331Z,4.70
2018-10-03T22:06:50.051Z,4.70
2018-10-03T22:09:18.390Z,4.03
2018-10-03T22:11:46.687Z,4.80
2018-10-03T22:14:14.979Z,4.40
2018-10-03T22:16:43.276Z,4.67
2018-10-03T22:19:11.963Z,4.90
2018-10-03T22:21:40.243Z,4.90
2018-10-03T22:24:08.596Z,4.80
2018-10-03T22:26:36.907Z,4.20
2018-10-03T22:29:05.227Z,4.37
2018-10-03T22:31:33.520Z,4.40
2018-10-03T22:34:01.891Z,4.63
2018-10-03T22:36:30.215Z,4.50
2018-10-03T22:38:58.503Z,4.27
2018-10-03T22:41:26.815Z,4.90
2018-10-03T22:43:55.153Z,4.43
2018-10-03T22:46:23.419Z,5.00
2018-10-03T22:48:51.737Z,4.87
2018-10-03T22:51:20.075Z,4.90
2018-10-03T22:53:48.475Z,4.67
2018-10-03T22:56:16.764Z,4.90
2018-10-03T22:58:45.111Z,4.70
2018-10-03T23:01:13.399Z,5.13
2018-10-03T23:03:41.714Z,4.67
2018-10-03T23:06:10.054Z,4.63
2018-10-03T23:08:38.539Z,4.87
2018-10-03T23:11:07.199Z,5.03
2018-10-03T23:13:35.592Z,4.50
2018-10-03T23:16:03.892Z,5.47
2018-10-03T23:18:32.263Z,4.40
2018-10-03T23:21:00.576Z,4.67
2018-10-03T23:23:28.947Z,5.20
2018-10-03T23:25:57.271Z,5.23
2018-10-03T23:28:25.559Z,4.73
2018-10-03T23:30:53.881Z,5.47
2018-10-03T23:33:22.175Z,5.67
2018-10-03T23:35:50.459Z,5.43
2018-10-03T23:38:18.779Z,5.30
2018-10-03T23:40:47.087Z,4.67
2018-10-03T23:43:15.703Z,4.97
2018-10-03T23:45:43.972Z,5.03
2018-10-03T23:48:12.267Z,4.90
2018-10-03T23:50:40.579Z,5.03
2018-10-03T23:53:08.896Z,5.30
2018-10-03T23:55:37.195Z,4.80
2018-10-03T23:58:05.503Z,5.27
